Time;durP1;ratioP1;P1;durP2;ratioP2;P2;SDS_P1;SDS_P2;PMS_P1;PMS_P2;Temp;Humidity;BMP_temperature;BMP_pressure;BME280_temperature;BME280_humidity;BME280_pressure;Samples;Min_cycle;Max_cycle;Signal;HPM_P1;HPM_P2
2021/10/29 00:00:34;;;;;;;72.07;27.75;;;;;;;-139.48;100.00;61774.03;4979311;28;20080;-70
2021/10/29 00:03:19;;;;;;;91.78;27.13;;;;;;;-139.48;100.00;61774.03;4979399;28;20129;-70
2021/10/29 00:06:04;;;;;;;70.85;26.98;;;;;;;-139.48;100.00;61774.03;4994309;28;20057;-70
2021/10/29 00:08:47;;;;;;;107.95;28.30;;;;;;;-139.48;100.00;61774.03;4993277;28;20042;-70
2021/10/29 00:11:31;;;;;;;52.67;26.20;;;;;;;-139.48;100.00;61774.03;4994253;28;20142;-70
2021/10/29 00:14:16;;;;;;;81.65;27.00;;;;;;;-139.48;100.00;61774.03;4992924;28;20097;-69
2021/10/29 00:17:01;;;;;;;96.15;28.17;;;;;;;-139.48;100.00;61774.03;4993911;28;20057;-70
2021/10/29 00:19:45;;;;;;;92.30;26.98;;;;;;;-139.48;100.00;61774.03;4965669;28;20148;-70
2021/10/29 00:22:29;;;;;;;110.75;26.83;;;;;;;-139.48;100.00;61774.03;4992880;28;20053;-70
2021/10/29 00:25:13;;;;;;;65.57;28.83;;;;;;;-139.48;100.00;61774.03;4993803;28;20074;-70
2021/10/29 00:27:57;;;;;;;114.68;28.77;;;;;;;-139.48;100.00;61774.03;4993060;28;20411;-70
2021/10/29 00:30:42;;;;;;;102.20;28.60;;;;;;;-139.48;100.00;61774.03;4992677;28;20049;-70
2021/10/29 00:33:26;;;;;;;73.78;26.80;;;;;;;-139.48;100.00;61774.03;4993012;28;20053;-70
2021/10/29 00:36:10;;;;;;;159.60;30.85;;;;;;;-139.48;100.00;61774.03;4993000;28;20510;-70
2021/10/29 00:38:54;;;;;;;143.13;28.40;;;;;;;-139.48;100.00;61774.03;4992584;28;20049;-70
2021/10/29 00:41:38;;;;;;;158.43;28.55;;;;;;;-139.48;100.00;61774.03;4978951;28;20077;-70
2021/10/29 00:44:24;;;;;;;111.45;28.20;;;;;;;-139.48;100.00;61774.03;4993913;28;20100;-70
2021/10/29 00:47:08;;;;;;;102.25;28.55;;;;;;;-139.48;100.00;61774.03;4979160;28;20602;-70
2021/10/29 00:49:52;;;;;;;162.75;28.60;;;;;;;-139.48;100.00;61774.03;4992692;28;20118;-70
2021/10/29 00:52:36;;;;;;;122.30;27.20;;;;;;;-139.48;100.00;61774.03;4993154;28;20141;-70
2021/10/29 00:55:20;;;;;;;104.05;29.08;;;;;;;-139.48;100.00;61774.03;4978766;28;20045;-70
2021/10/29 00:58:04;;;;;;;55.13;26.73;;;;;;;-139.48;100.00;61774.03;4979072;28;20096;-70
2021/10/29 01:00:49;;;;;;;87.13;26.90;;;;;;;-139.48;100.00;61774.03;4979246;28;20081;-69
2021/10/29 01:03:37;;;;;;;129.20;29.40;;;;;;;-139.48;100.00;61774.03;4979058;28;20680;-67
2021/10/29 01:06:21;;;;;;;85.43;28.33;;;;;;;-139.48;100.00;61774.03;4981878;28;20053;-70
2021/10/29 01:09:05;;;;;;;83.22;29.42;;;;;;;-139.48;100.00;61774.03;4996459;28;20049;-70
2021/10/29 01:11:49;;;;;;;88.13;29.83;;;;;;;-139.48;100.00;61774.03;4982689;28;20092;-70
2021/10/29 01:14:33;;;;;;;72.88;26.58;;;;;;;-139.48;100.00;61774.03;4997442;28;20045;-70
2021/10/29 01:17:18;;;;;;;72.78;25.33;;;;;;;-139.48;100.00;61774.03;4997383;28;20093;-70
2021/10/29 01:20:04;;;;;;;110.00;27.13;;;;;;;-139.48;100.00;61774.03;4982197;28;20049;-70
2021/10/29 01:22:48;;;;;;;127.00;27.33;;;;;;;-139.48;100.00;61774.03;4982375;28;20458;-70
2021/10/29 01:25:32;;;;;;;92.57;27.55;;;;;;;-139.48;100.00;61774.03;4982708;28;20133;-70
2021/10/29 01:28:16;;;;;;;105.40;25.30;;;;;;;-139.48;100.00;61774.03;4996248;28;20054;-70
2021/10/29 01:31:01;;;;;;;75.72;24.10;;;;;;;-139.48;100.00;61774.03;4995948;28;20045;-70
2021/10/29 01:33:45;;;;;;;94.07;24.52;;;;;;;-139.48;100.00;61774.03;4982427;28;20181;-70
2021/10/29 01:36:29;;;;;;;112.63;23.83;;;;;;;-139.48;100.00;61774.03;4982582;28;20100;-70
2021/10/29 01:39:16;;;;;;;69.18;22.77;;;;;;;-139.48;100.00;61774.03;4981944;28;20097;-70
2021/10/29 01:42:00;;;;;;;66.93;23.80;;;;;;;-139.48;100.00;61774.03;4968233;28;20049;-70
2021/10/29 01:44:46;;;;;;;44.67;22.90;;;;;;;-139.48;100.00;61774.03;4982168;28;20049;-69
2021/10/29 01:47:30;;;;;;;55.00;25.33;;;;;;;-139.48;100.00;61774.03;4982079;28;20053;-69
2021/10/29 01:50:13;;;;;;;37.38;22.60;;;;;;;-139.48;100.00;61774.03;4995563;28;20056;-70
2021/10/29 01:52:57;;;;;;;75.05;24.00;;;;;;;-139.48;100.00;61774.03;4982009;28;20053;-69
2021/10/29 01:55:41;;;;;;;38.38;21.58;;;;;;;-139.48;100.00;61774.03;4981912;28;20096;-70
2021/10/29 01:58:25;;;;;;;62.17;24.02;;;;;;;-139.48;100.00;61774.03;4982099;28;20133;-70
2021/10/29 02:01:09;;;;;;;71.72;26.08;;;;;;;-139.48;100.00;61774.03;4995297;28;20153;-70
2021/10/29 02:03:53;;;;;;;;;;;;;;;-139.48;100.00;61774.03;4982124;28;20499;-70
2021/10/29 02:06:37;;;;;;;40.33;21.40;;;;;;;-139.48;100.00;61774.03;4995552;28;19971;-70
2021/10/29 02:09:21;;;;;;;37.90;22.98;;;;;;;-139.48;100.00;61774.03;4996359;28;20093;-70
2021/10/29 02:12:05;;;;;;;73.25;24.10;;;;;;;-139.48;100.00;61774.03;4996678;28;20176;-70
2021/10/29 02:14:49;;;;;;;49.10;23.63;;;;;;;-139.48;100.00;61774.03;4996113;28;20077;-70
2021/10/29 02:17:34;;;;;;;87.07;27.02;;;;;;;-139.48;100.00;61774.03;4980346;28;20073;-70
2021/10/29 02:20:18;;;;;;;57.45;25.17;;;;;;;-139.48;100.00;61774.03;4981417;28;20129;-70
2021/10/29 02:23:01;;;;;;;86.45;26.67;;;;;;;-139.48;100.00;61774.03;4996059;28;20101;-70
2021/10/29 02:25:46;;;;;;;60.70;26.45;;;;;;;-139.48;100.00;61774.03;5036890;22;20057;-69
2021/10/29 02:28:30;;;;;;;63.20;25.60;;;;;;;-139.48;100.00;61774.03;5015688;28;20536;-69
2021/10/29 02:31:14;;;;;;;70.75;27.15;;;;;;;-139.48;100.00;61774.03;5014818;28;20057;-69
2021/10/29 02:33:58;;;;;;;49.25;25.13;;;;;;;-139.48;100.00;61774.03;5015557;28;20091;-68
2021/10/29 02:36:42;;;;;;;65.75;27.65;;;;;;;-139.48;100.00;61774.03;4986711;28;20514;-69
2021/10/29 02:39:26;;;;;;;99.43;27.77;;;;;;;-139.48;100.00;61774.03;5015566;28;20506;-68
2021/10/29 02:42:10;;;;;;;84.60;26.52;;;;;;;-139.48;100.00;61774.03;5015189;28;20099;-68
2021/10/29 02:44:53;;;;;;;194.63;29.90;;;;;;;-139.48;100.00;61774.03;5000208;28;20069;-69
2021/10/29 02:47:38;;;;;;;159.02;29.10;;;;;;;-139.48;100.00;61774.03;5000760;28;20088;-68
2021/10/29 02:50:22;;;;;;;105.70;27.08;;;;;;;-139.48;100.00;61774.03;4986496;28;20053;-68
2021/10/29 02:53:08;;;;;;;145.68;29.30;;;;;;;-139.48;100.00;61774.03;5015229;28;20526;-69
2021/10/29 02:55:52;;;;;;;172.48;30.50;;;;;;;-139.48;100.00;61774.03;5000259;28;20049;-68
2021/10/29 02:58:36;;;;;;;75.70;26.27;;;;;;;-139.48;100.00;61774.03;5015016;28;20502;-68
2021/10/29 03:01:19;;;;;;;77.57;27.23;;;;;;;-139.48;100.00;61774.03;5000214;28;20053;-69
2021/10/29 03:04:04;;;;;;;150.93;29.52;;;;;;;-139.48;100.00;61774.03;5000405;28;20057;-70
2021/10/29 03:06:47;;;;;;;175.25;29.67;;;;;;;-139.48;100.00;61774.03;4986105;28;20069;-67
2021/10/29 03:09:31;;;;;;;97.28;26.85;;;;;;;-139.48;100.00;61774.03;5014924;28;20048;-69
2021/10/29 03:12:15;;;;;;;102.55;29.10;;;;;;;-139.48;100.00;61774.03;5014637;28;20060;-69
2021/10/29 03:14:59;;;;;;;93.82;28.85;;;;;;;-139.48;100.00;61774.03;4986072;28;20096;-69
2021/10/29 03:17:43;;;;;;;102.30;28.58;;;;;;;-139.48;100.00;61774.03;4999644;28;20064;-71
2021/10/29 03:20:27;;;;;;;144.23;28.70;;;;;;;-139.48;100.00;61774.03;5014644;28;20200;-69
2021/10/29 03:23:13;;;;;;;126.38;27.02;;;;;;;-139.48;100.00;61774.03;4999578;28;20053;-68
2021/10/29 03:25:57;;;;;;;155.55;28.38;;;;;;;-139.48;100.00;61774.03;4986026;28;20093;-70
2021/10/29 03:28:40;;;;;;;170.05;29.85;;;;;;;-139.48;100.00;61774.03;4985606;28;20069;-71
2021/10/29 03:31:24;;;;;;;121.25;30.35;;;;;;;-139.48;100.00;61774.03;5014504;28;20129;-70
2021/10/29 03:34:08;;;;;;;130.13;27.60;;;;;;;-139.48;100.00;61774.03;4999507;28;20103;-70
2021/10/29 03:36:52;;;;;;;149.07;27.52;;;;;;;-139.48;100.00;61774.03;4999567;28;20045;-70
2021/10/29 03:39:48;;;;;;;119.82;23.73;;;;;;;-139.48;100.00;61774.03;4985718;28;20057;-71
2021/10/29 03:42:38;;;;;;;150.60;27.00;;;;;;;-139.48;100.00;61774.03;5001455;28;20048;-71
2021/10/29 03:45:22;;;;;;;101.95;25.02;;;;;;;-139.48;100.00;61774.03;4985919;28;20052;-71
2021/10/29 03:48:06;;;;;;;136.88;25.63;;;;;;;-139.48;100.00;61774.03;4985903;28;20103;-70
2021/10/29 03:51:08;;;;;;;51.53;23.50;;;;;;;-139.48;100.00;61774.03;4999318;28;20505;-70
2021/10/29 03:59:44;;;;;;;59.22;22.52;;;;;;;-139.48;100.00;61774.03;5014099;28;20092;-70
2021/10/29 04:02:28;;;;;;;37.45;20.15;;;;;;;-139.48;100.00;61774.03;4998878;28;20411;-71
2021/10/29 04:05:12;;;;;;;34.35;20.38;;;;;;;-139.48;100.00;61774.03;5013891;28;20049;-68
2021/10/29 04:07:56;;;;;;;47.17;22.83;;;;;;;-139.48;100.00;61774.03;4985332;28;20134;-69
2021/10/29 04:10:43;;;;;;;44.00;19.67;;;;;;;-139.48;100.00;61774.03;4985113;28;20411;-70
2021/10/29 04:13:33;;;;;;;36.45;20.05;;;;;;;-139.48;100.00;61774.03;4985833;28;20618;-70
2021/10/29 04:16:17;;;;;;;57.80;19.65;;;;;;;-139.48;100.00;61774.03;4999485;28;20047;-70
2021/10/29 04:19:02;;;;;;;77.53;19.77;;;;;;;-139.48;100.00;61774.03;4998769;28;20048;-70
2021/10/29 04:21:47;;;;;;;69.97;20.00;;;;;;;-139.48;100.00;61774.03;4999250;28;20549;-70
2021/10/29 04:24:31;;;;;;;29.20;16.52;;;;;;;-139.48;100.00;61774.03;4985018;28;20127;-70
2021/10/29 04:27:21;;;;;;;41.97;18.80;;;;;;;-139.48;100.00;61774.03;4998590;28;20585;-70
2021/10/29 04:30:11;;;;;;;58.75;19.58;;;;;;;-139.48;100.00;61774.03;4985927;28;20121;-70
2021/10/29 04:32:57;;;;;;;38.90;18.65;;;;;;;-139.48;100.00;61774.03;4999986;28;20129;-70
2021/10/29 04:35:44;;;;;;;38.97;18.65;;;;;;;-139.48;100.00;61774.03;4998403;28;20115;-69
2021/10/29 04:38:28;;;;;;;45.25;17.92;;;;;;;-139.48;100.00;61774.03;4998383;28;20048;-70
2021/10/29 04:41:13;;;;;;;43.10;17.85;;;;;;;-139.48;100.00;61774.03;5001790;28;20052;-70
2021/10/29 04:43:57;;;;;;;41.35;19.13;;;;;;;-139.48;100.00;61774.03;4989166;28;20175;-69
2021/10/29 04:46:41;;;;;;;80.38;19.77;;;;;;;-139.48;100.00;61774.03;5002512;28;20049;-70
2021/10/29 04:49:25;;;;;;;123.20;21.50;;;;;;;-139.48;100.00;61774.03;5002692;28;20049;-70
2021/10/29 04:52:10;;;;;;;44.25;19.48;;;;;;;-139.48;100.00;61774.03;5002446;28;20100;-70
2021/10/29 04:54:55;;;;;;;48.38;18.17;;;;;;;-139.48;100.00;61774.03;5002575;28;20084;-70
2021/10/29 04:57:39;;;;;;;29.42;16.80;;;;;;;-139.48;100.00;61774.03;4988591;28;20509;-70
2021/10/29 05:00:24;;;;;;;52.78;18.17;;;;;;;-139.48;100.00;61774.03;4988419;28;20048;-70
2021/10/29 05:03:08;;;;;;;33.72;17.45;;;;;;;-139.48;100.00;61774.03;5002536;28;20081;-69
2021/10/29 05:05:52;;;;;;;46.63;17.73;;;;;;;-139.48;100.00;61774.03;5002327;28;20049;-70
2021/10/29 05:08:37;;;;;;;92.95;18.25;;;;;;;-139.48;100.00;61774.03;5002059;28;20056;-69
2021/10/29 05:11:21;;;;;;;45.30;17.50;;;;;;;-139.48;100.00;61774.03;5002457;28;20403;-70
2021/10/29 05:14:05;;;;;;;78.72;19.85;;;;;;;-139.48;100.00;61774.03;5017042;28;20049;-69
2021/10/29 05:16:50;;;;;;;34.95;18.52;;;;;;;-139.48;100.00;61774.03;5002377;28;20053;-70
2021/10/29 05:19:34;;;;;;;72.57;19.58;;;;;;;-139.48;100.00;61774.03;5001994;28;20048;-70
2021/10/29 05:22:18;;;;;;;106.00;21.65;;;;;;;-139.48;100.00;61774.03;5001763;28;20068;-69
2021/10/29 05:25:02;;;;;;;39.45;19.10;;;;;;;-139.48;100.00;61774.03;5001635;28;20077;-69
2021/10/29 05:27:46;;;;;;;46.58;21.58;;;;;;;-139.48;100.00;61774.03;5002198;28;20096;-70
2021/10/29 05:30:31;;;;;;;58.13;20.40;;;;;;;-139.48;100.00;61774.03;5016472;28;20072;-70
2021/10/29 05:33:18;;;;;;;32.63;18.67;;;;;;;-139.48;100.00;61774.03;5001797;28;20092;-69
2021/10/29 05:36:02;;;;;;;31.13;18.10;;;;;;;-139.48;100.00;61774.03;5001458;28;20048;-70
2021/10/29 05:38:46;;;;;;;27.63;17.77;;;;;;;-139.48;100.00;61774.03;5001648;28;20092;-70
2021/10/29 05:41:30;;;;;;;68.85;19.58;;;;;;;-139.48;100.00;61774.03;5001616;28;20053;-70
2021/10/29 05:44:15;;;;;;;48.97;18.35;;;;;;;-139.48;100.00;61774.03;4987851;28;20066;-70
2021/10/29 05:46:59;;;;;;;33.80;19.52;;;;;;;-139.48;100.00;61774.03;5001622;28;20402;-70
2021/10/29 05:49:43;;;;;;;43.53;20.85;;;;;;;-139.48;100.00;61774.03;5016410;28;20514;-69
2021/10/29 05:52:29;;;;;;;39.17;20.10;;;;;;;-139.48;100.00;61774.03;5001130;28;20052;-70
2021/10/29 05:55:14;;;;;;;43.83;21.42;;;;;;;-139.48;100.00;61774.03;5016222;28;20044;-70
2021/10/29 05:57:58;;;;;;;50.78;21.55;;;;;;;-139.48;100.00;61774.03;4987731;28;20131;-69
2021/10/29 06:00:42;;;;;;;39.50;19.70;;;;;;;-139.48;100.00;61774.03;5015908;28;20111;-70
2021/10/29 06:03:26;;;;;;;35.25;19.48;;;;;;;-139.48;100.00;61774.03;5016189;28;20103;-70
2021/10/29 06:06:10;;;;;;;40.50;19.95;;;;;;;-139.48;100.00;61774.03;5016044;28;20045;-70
2021/10/29 06:08:55;;;;;;;59.72;20.95;;;;;;;-139.48;100.00;61774.03;4987551;28;20420;-70
2021/10/29 06:11:38;;;;;;;62.08;19.13;;;;;;;-139.48;100.00;61774.03;5016006;28;20471;-70
2021/10/29 06:14:23;;;;;;;76.85;21.02;;;;;;;-139.48;100.00;61774.03;4987347;28;20419;-69
2021/10/29 06:17:13;;;;;;;62.42;18.88;;;;;;;-139.48;100.00;61774.03;5001045;28;20068;-70
2021/10/29 06:19:57;;;;;;;68.72;18.70;;;;;;;-139.48;100.00;61774.03;5001633;28;20438;-69
2021/10/29 06:22:52;;;;;;;57.80;20.98;;;;;;;-139.48;100.00;61774.03;5015997;28;20462;-69
2021/10/29 06:25:43;;;;;;;48.60;20.65;;;;;;;-139.48;100.00;61774.03;5015543;28;20056;-69
2021/10/29 06:28:30;;;;;;;60.63;20.05;;;;;;;-139.48;100.00;61774.03;5015696;28;20072;-70
2021/10/29 06:31:18;;;;;;;44.92;21.52;;;;;;;-139.48;100.00;61774.03;5001241;28;20076;-70
2021/10/29 06:34:03;;;;;;;97.78;23.65;;;;;;;-139.48;100.00;61774.03;5000459;28;20470;-70
2021/10/29 06:36:47;;;;;;;54.60;20.75;;;;;;;-139.48;100.00;61774.03;5000741;28;20056;-69
2021/10/29 06:39:32;;;;;;;44.03;22.08;;;;;;;-139.48;100.00;61774.03;5000567;28;20088;-70
2021/10/29 06:42:32;;;;;;;53.33;21.88;;;;;;;-139.48;100.00;61774.03;5000559;28;20100;-70
2021/10/29 06:48:31;;;;;;;56.13;20.92;;;;;;;-139.48;100.00;61774.03;5003010;28;20053;-70
2021/10/29 07:03:42;;;;;;;48.03;19.45;;;;;;;-139.48;100.00;61774.03;5001914;28;20076;-70
2021/10/29 07:40:08;;;;;;;46.67;12.13;;;;;;;-139.48;100.00;61774.03;5001950;28;20049;-70
2021/10/29 07:42:58;;;;;;;23.58;13.70;;;;;;;-139.48;100.00;61774.03;4999254;28;20084;-70
2021/10/29 07:45:43;;;;;;;48.22;12.23;;;;;;;-139.48;100.00;61774.03;5000210;28;20044;-70
2021/10/29 07:48:29;;;;;;;24.33;12.30;;;;;;;-139.48;100.00;61774.03;4999402;28;20695;-70
2021/10/29 07:51:14;;;;;;;35.58;12.90;;;;;;;-139.48;100.00;61774.03;4985624;28;20211;-70
2021/10/29 07:53:58;;;;;;;36.03;14.57;;;;;;;-139.48;100.00;61774.03;4999329;28;20076;-70
2021/10/29 07:56:42;;;;;;;24.70;13.05;;;;;;;-139.48;100.00;61774.03;4985689;28;20041;-70
2021/10/29 07:59:26;;;;;;;36.65;14.70;;;;;;;-139.48;100.00;61774.03;4999215;28;20180;-70
2021/10/29 08:02:10;;;;;;;38.83;15.20;;;;;;;-139.48;100.00;61774.03;4999219;28;20191;-70
2021/10/29 08:04:54;;;;;;;34.65;15.23;;;;;;;-139.48;100.00;61774.03;4998809;28;20137;-70
2021/10/29 08:07:38;;;;;;;24.23;14.15;;;;;;;-139.48;100.00;61774.03;5014155;28;20446;-70
2021/10/29 08:10:22;;;;;;;50.67;15.30;;;;;;;-139.48;100.00;61774.03;5013788;28;20421;-70
2021/10/29 08:13:06;;;;;;;29.55;14.57;;;;;;;-139.48;100.00;61774.03;4999237;28;20100;-70
2021/10/29 08:15:53;;;;;;;27.10;16.33;;;;;;;-139.48;100.00;61774.03;4998963;28;20049;-70
2021/10/29 08:18:43;;;;;;;32.03;16.85;;;;;;;-139.48;100.00;61774.03;5013761;28;20076;-70
2021/10/29 08:21:27;;;;;;;27.77;14.50;;;;;;;-139.48;100.00;61774.03;4999612;28;20049;-70
2021/10/29 08:24:13;;;;;;;34.05;14.18;;;;;;;-139.48;100.00;61774.03;5013377;28;20104;-70
2021/10/29 08:26:57;;;;;;;41.40;14.40;;;;;;;-139.48;100.00;61774.03;5035912;22;20103;-72
2021/10/29 08:29:41;;;;;;;41.55;15.00;;;;;;;-139.48;100.00;61774.03;5004391;28;20068;-72
2021/10/29 08:32:25;;;;;;;24.48;14.30;;;;;;;-139.48;100.00;61774.03;5018480;28;20099;-72
2021/10/29 08:35:10;;;;;;;30.98;15.43;;;;;;;-139.48;100.00;61774.03;5018816;28;20055;-71
2021/10/29 08:37:54;;;;;;;38.22;14.95;;;;;;;-139.48;100.00;61774.03;4985298;28;20057;-71
2021/10/29 08:40:38;;;;;;;28.75;15.50;;;;;;;-139.48;100.00;61774.03;4985016;28;20533;-71
2021/10/29 08:43:22;;;;;;;31.13;15.80;;;;;;;-139.48;100.00;61774.03;4998746;28;20057;-69
2021/10/29 08:46:06;;;;;;;48.83;14.60;;;;;;;-139.48;100.00;61774.03;4998435;28;20510;-70
2021/10/29 08:48:50;;;;;;;40.78;16.27;;;;;;;-139.48;100.00;61774.03;4998592;28;20557;-70
2021/10/29 08:51:35;;;;;;;45.10;16.77;;;;;;;-139.48;100.00;61774.03;4985279;28;20060;-70
2021/10/29 08:54:20;;;;;;;26.42;15.68;;;;;;;-139.48;100.00;61774.03;5013139;28;20073;-70
2021/10/29 08:57:04;;;;;;;32.20;16.98;;;;;;;-139.48;100.00;61774.03;4998503;28;20517;-69
2021/10/29 08:59:51;;;;;;;27.58;17.13;;;;;;;-139.48;100.00;61774.03;5013036;28;20406;-70
2021/10/29 09:02:42;;;;;;;34.67;18.02;;;;;;;-139.48;100.00;61774.03;4984670;28;20426;-70
2021/10/29 09:05:45;;;;;;;26.27;15.95;;;;;;;-139.48;100.00;61774.03;4998565;28;20542;-71
2021/10/29 09:09:06;;;;;;;33.60;18.10;;;;;;;-139.48;100.00;61774.03;5001281;28;20044;-71
2021/10/29 09:12:04;;;;;;;32.08;17.92;;;;;;;-139.48;100.00;61774.03;5002031;28;20119;-71
2021/10/29 09:31:23;;;;;;;26.08;15.55;;;;;;;-139.48;100.00;61774.03;5001257;28;20095;-71
2021/10/29 09:33:45;;;;;;;24.90;16.20;;;;;;;-139.48;100.00;61774.03;5004268;28;20041;-71
2021/10/29 09:36:37;;;;;;;25.27;15.90;;;;;;;-139.48;100.00;61774.03;5001926;28;20410;-71
2021/10/29 09:39:23;;;;;;;33.95;17.90;;;;;;;-139.48;100.00;61774.03;5016669;28;20502;-71
2021/10/29 09:42:09;;;;;;;28.35;17.50;;;;;;;-139.48;100.00;61774.03;5001753;28;20068;-71
2021/10/29 09:44:53;;;;;;;30.15;18.38;;;;;;;-139.48;100.00;61774.03;5001847;28;20052;-70
2021/10/29 09:47:38;;;;;;;34.17;18.85;;;;;;;-139.48;100.00;61774.03;5001375;28;20204;-71
2021/10/29 09:50:26;;;;;;;31.88;18.98;;;;;;;-139.48;100.00;61774.03;5001451;28;20103;-71
2021/10/29 09:53:23;;;;;;;28.95;18.83;;;;;;;-139.48;100.00;61774.03;4988077;28;20052;-72
2021/10/29 09:59:05;;;;;;;31.60;18.95;;;;;;;-139.48;100.00;61774.03;5015989;28;20072;-71
2021/10/29 10:01:49;;;;;;;30.83;20.55;;;;;;;-139.48;100.00;61774.03;4987933;28;20103;-71
2021/10/29 10:04:34;;;;;;;30.55;18.30;;;;;;;-139.48;100.00;61774.03;5001410;28;20099;-71
2021/10/29 10:07:19;;;;;;;34.40;19.40;;;;;;;-139.48;100.00;61774.03;5001292;28;20100;-71
2021/10/29 10:10:07;;;;;;;31.38;19.60;;;;;;;-139.48;100.00;61774.03;4987285;28;20064;-71
2021/10/29 10:12:52;;;;;;;33.42;18.92;;;;;;;-139.48;100.00;61774.03;5001181;28;20076;-71
2021/10/29 10:15:36;;;;;;;29.25;19.00;;;;;;;-139.48;100.00;61774.03;5000949;28;20048;-70
2021/10/29 10:18:21;;;;;;;32.83;20.52;;;;;;;-139.48;100.00;61774.03;5001266;28;20045;-71
2021/10/29 10:21:10;;;;;;;34.53;20.52;;;;;;;-139.48;100.00;61774.03;5000792;28;20045;-71
2021/10/29 10:23:58;;;;;;;33.08;20.90;;;;;;;-139.48;100.00;61774.03;5001053;28;20111;-71
2021/10/29 10:27:14;;;;;;;39.97;24.85;;;;;;;-139.48;100.00;61774.03;4987215;28;20068;-71
2021/10/29 10:42:49;;;;;;;39.40;23.70;;;;;;;-139.48;100.00;61774.03;5014645;28;19939;-71
2021/10/29 10:45:38;;;;;;;37.38;24.25;;;;;;;-139.48;100.00;61774.03;4988642;28;20045;-71
2021/10/29 10:48:27;;;;;;;41.55;26.50;;;;;;;-139.48;100.00;61774.03;4987721;28;20137;-70
2021/10/29 11:06:25;;;;;;;42.70;26.58;;;;;;;-139.48;100.00;61774.03;5000834;28;20438;-70
2021/10/29 11:11:57;;;;;;;43.55;28.58;;;;;;;-139.48;100.00;61774.03;5014879;28;20099;-71
2021/10/29 11:14:41;;;;;;;44.58;28.63;;;;;;;-139.48;100.00;61774.03;4999847;28;20131;-71
2021/10/29 11:17:46;;;;;;;48.08;30.38;;;;;;;-139.48;100.00;61774.03;4999775;28;20052;-71
2021/10/29 11:20:51;;;;;;;45.65;29.58;;;;;;;-139.48;100.00;61774.03;4999744;28;20108;-71
2021/10/29 11:23:35;;;;;;;47.67;28.88;;;;;;;-139.48;100.00;61774.03;5014158;28;20633;-71
2021/10/29 11:26:40;;;;;;;47.55;29.00;;;;;;;-139.48;100.00;61774.03;5014313;28;20131;-70
2021/10/29 11:29:24;;;;;;;;;;;;;;;-139.48;100.00;61774.03;4999964;28;20049;-70
2021/10/29 11:32:10;;;;;;;51.33;29.20;;;;;;;-139.48;100.00;61774.03;5013744;28;19920;-71
2021/10/29 11:34:59;;;;;;;46.38;28.73;;;;;;;-139.48;100.00;61774.03;4999732;28;20052;-71
2021/10/29 11:37:45;;;;;;;45.88;29.50;;;;;;;-139.48;100.00;61774.03;4999549;28;20049;-71
2021/10/29 11:40:31;;;;;;;53.88;30.95;;;;;;;-139.48;100.00;61774.03;4999528;28;20096;-70
2021/10/29 11:43:27;;;;;;;48.08;29.67;;;;;;;-139.48;100.00;61774.03;5014435;28;20108;-70
2021/10/29 11:46:13;;;;;;;48.00;28.98;;;;;;;-139.48;100.00;61774.03;4999672;28;20103;-71
2021/10/29 11:49:04;;;;;;;54.47;32.88;;;;;;;-139.48;100.00;61774.03;5014007;28;20053;-70
2021/10/29 11:51:51;;;;;;;44.10;28.25;;;;;;;-139.48;100.00;61774.03;4985305;28;20053;-71
2021/10/29 11:54:37;;;;;;;49.00;28.23;;;;;;;-139.48;100.00;61774.03;4985675;28;20088;-71
2021/10/29 11:57:35;;;;;;;46.78;27.63;;;;;;;-139.48;100.00;61774.03;4999640;28;20060;-72
2021/10/29 12:00:28;;;;;;;42.90;25.40;;;;;;;-139.48;100.00;61774.03;4987189;28;20556;-70
2021/10/29 12:09:30;;;;;;;44.60;25.92;;;;;;;-139.48;100.00;61774.03;4989725;28;20522;-72
2021/10/29 12:12:18;;;;;;;44.92;26.48;;;;;;;-139.48;100.00;61774.03;4985709;28;20105;-70
2021/10/29 12:15:21;;;;;;;47.20;26.98;;;;;;;-139.48;100.00;61774.03;4999220;28;20052;-71
2021/10/29 12:18:07;;;;;;;42.50;26.27;;;;;;;-139.48;100.00;61774.03;4985600;28;20123;-71
2021/10/29 12:20:51;;;;;;;38.78;25.10;;;;;;;-139.48;100.00;61774.03;4999012;28;20052;-71
2021/10/29 12:23:35;;;;;;;38.15;24.23;;;;;;;-139.48;100.00;61774.03;4998832;28;20147;-71
2021/10/29 12:26:22;;;;;;;44.60;26.02;;;;;;;-139.48;100.00;61774.03;4985008;28;20131;-71
2021/10/29 12:29:12;;;;;;;42.50;25.67;;;;;;;-139.48;100.00;61774.03;4999169;28;20565;-72
2021/10/29 12:38:20;;;;;;;44.03;25.48;;;;;;;-139.48;100.00;61774.03;5013448;28;20092;-71
2021/10/29 13:02:38;;;;;;;39.00;24.20;;;;;;;-139.48;100.00;61774.03;5004954;28;20525;-71
2021/10/29 13:05:22;;;;;;;40.78;24.55;;;;;;;-139.48;100.00;61774.03;5002558;28;20053;-71
2021/10/29 13:08:20;;;;;;;37.50;24.17;;;;;;;-139.48;100.00;61774.03;5002726;28;20084;-69
2021/10/29 13:11:05;;;;;;;38.33;23.95;;;;;;;-139.48;100.00;61774.03;5002658;28;20049;-70
2021/10/29 13:13:59;;;;;;;37.13;24.10;;;;;;;-139.48;100.00;61774.03;4988917;28;20049;-71
2021/10/29 13:16:42;;;;;;;39.08;24.67;;;;;;;-139.48;100.00;61774.03;5003715;28;20513;-70
2021/10/29 13:26:01;;;;;;;38.33;24.52;;;;;;;-139.48;100.00;61774.03;5004758;28;20045;-71
2021/10/29 13:34:28;;;;;;;36.95;24.40;;;;;;;-139.48;100.00;61774.03;5002502;28;20045;-71
2021/10/29 13:52:21;;;;;;;28.70;20.08;;;;;;;-139.48;100.00;61774.03;5004292;28;20049;-71
2021/10/29 14:34:37;;;;;;;29.35;19.92;;;;;;;-139.48;100.00;61774.03;5015704;28;20414;-69
2021/10/29 14:40:21;;;;;;;31.15;22.67;;;;;;;-139.48;100.00;61774.03;5015587;28;20092;-69
2021/10/29 14:43:22;;;;;;;29.77;21.55;;;;;;;-139.48;100.00;61774.03;4988776;28;20172;-69
2021/10/29 14:52:18;;;;;;;30.55;20.58;;;;;;;-139.48;100.00;61774.03;5001064;28;20502;-69
2021/10/29 15:03:54;;;;;;;34.92;22.02;;;;;;;-139.48;100.00;61774.03;5001046;28;20068;-70
2021/10/29 15:25:15;;;;;;;29.77;21.27;;;;;;;-139.48;100.00;61774.03;5014148;28;20414;-71
2021/10/29 15:31:13;;;;;;;31.13;20.50;;;;;;;-139.48;100.00;61774.03;5000672;28;20048;-70
2021/10/29 15:46:12;;;;;;;37.50;23.40;;;;;;;-139.48;100.00;61774.03;5001095;28;20180;-70
2021/10/29 15:49:20;;;;;;;34.10;21.77;;;;;;;-139.48;100.00;61774.03;4998926;28;20056;-69
2021/10/29 15:52:13;;;;;;;38.70;24.02;;;;;;;-139.48;100.00;61774.03;4988210;28;20092;-70
2021/10/29 15:55:03;;;;;;;44.45;24.83;;;;;;;-139.48;100.00;61774.03;5013547;28;20052;-70
2021/10/29 15:57:58;;;;;;;43.60;24.27;;;;;;;-139.48;100.00;61774.03;5013369;28;20052;-70
2021/10/29 16:03:56;;;;;;;42.50;26.08;;;;;;;-139.48;100.00;61774.03;5001339;28;20048;-69
2021/10/29 16:18:52;;;;;;;41.13;24.38;;;;;;;-139.48;100.00;61774.03;5000930;28;20103;-69
2021/10/29 16:21:35;;;;;;;37.42;23.05;;;;;;;-139.48;100.00;61774.03;4998043;28;20129;-67
2021/10/29 16:24:19;;;;;;;41.70;24.48;;;;;;;-139.48;100.00;61774.03;5013054;28;20049;-70
2021/10/29 16:27:04;;;;;;;36.08;21.80;;;;;;;-139.48;100.00;61774.03;4948765;28;1034701;-69
2021/10/29 16:29:50;;;;;;;47.72;27.17;;;;;;;-139.48;100.00;61774.03;5013727;28;20129;-69
2021/10/29 16:35:39;;;;;;;42.88;25.02;;;;;;;-139.48;100.00;61774.03;4999920;28;20048;-68
2021/10/29 16:38:23;;;;;;;40.47;25.05;;;;;;;-139.48;100.00;61774.03;4984811;28;20565;-68
2021/10/29 16:41:07;;;;;;;35.88;22.55;;;;;;;-139.48;100.00;61774.03;5012662;28;20077;-69
2021/10/29 16:43:51;;;;;;;39.70;24.13;;;;;;;-139.48;100.00;61774.03;5013177;28;20384;-69
2021/10/29 16:46:35;;;;;;;39.42;24.15;;;;;;;-139.48;100.00;61774.03;4997894;28;20057;-67
2021/10/29 16:49:22;;;;;;;38.97;24.02;;;;;;;-139.48;100.00;61774.03;4998132;28;20045;-67
2021/10/29 16:52:07;;;;;;;42.05;23.77;;;;;;;-139.48;100.00;61774.03;4998496;28;20068;-67
2021/10/29 16:54:50;;;;;;;37.42;22.77;;;;;;;-139.48;100.00;61774.03;4998294;28;20096;-67